createdAt,value
2022-12-19T00:00:13.953Z,101662.46875
2022-12-19T00:01:10.500Z,101663.5078125
2022-12-19T00:02:11.075Z,101658.5546875
2022-12-19T00:03:10.631Z,101663.0859375
2022-12-19T00:04:10.557Z,101664.25390625
2022-12-19T00:05:10.502Z,101674.92578125
2022-12-19T00:06:10.925Z,101677.03515625
2022-12-19T00:07:10.851Z,101677.875
2022-12-19T00:08:17.121Z,101675.3125
2022-12-19T00:09:10.490Z,101674.71875
2022-12-19T00:10:13.646Z,101676.9765625
2022-12-19T00:11:10.714Z,101678.1796875
2022-12-19T00:12:15.920Z,101675.9765625
2022-12-19T00:13:10.575Z,101673.125
2022-12-19T00:14:10.503Z,101666.7578125
2022-12-19T00:15:10.496Z,101669.71875
2022-12-19T00:16:10.592Z,101666.2890625
2022-12-19T00:17:11.698Z,101666.5
2022-12-19T00:18:10.636Z,101670.90234375
2022-12-19T00:19:10.491Z,101668.6875
2022-12-19T00:20:10.569Z,101663.2578125
2022-12-19T00:21:16.513Z,101661.75390625
2022-12-19T00:22:11.394Z,101656.6953125
2022-12-19T00:23:10.945Z,101656.72265625
2022-12-19T00:24:18.438Z,101662.73828125
2022-12-19T00:25:10.504Z,101657.91015625
2022-12-19T00:26:10.604Z,101661.7890625
2022-12-19T00:27:10.625Z,101654.09375
2022-12-19T00:28:10.947Z,101652.515625
2022-12-19T00:29:14.304Z,101650.9453125
2022-12-19T00:30:12.604Z,101653.3671875
2022-12-19T00:31:10.560Z,101647.5390625
2022-12-19T00:32:13.734Z,101645.41796875
2022-12-19T00:33:10.872Z,101647.0859375
2022-12-19T00:34:11.042Z,101642.51953125
2022-12-19T00:35:10.642Z,101645.0546875
2022-12-19T00:36:10.502Z,101641.125
2022-12-19T00:37:10.592Z,101641.82421875
2022-12-19T00:38:10.865Z,101639.109375
2022-12-19T00:39:10.617Z,101641.80859375
2022-12-19T00:40:10.566Z,101640.60546875
2022-12-19T00:41:10.722Z,101642.046875
2022-12-19T00:42:10.571Z,101642.23046875
2022-12-19T00:43:16.606Z,101644.09375
2022-12-19T00:44:10.577Z,101638.5
2022-12-19T00:45:10.611Z,101639.921875
2022-12-19T00:46:10.633Z,101639.32421875
2022-12-19T00:47:10.497Z,101639.36328125
2022-12-19T00:48:10.942Z,101639.41796875
2022-12-19T00:49:13.874Z,101640.390625
2022-12-19T00:50:10.580Z,101640.26953125
2022-12-19T00:51:10.490Z,101642.265625
2022-12-19T00:52:10.698Z,101639.02734375
2022-12-19T00:53:10.951Z,101635.49609375
2022-12-19T00:54:10.641Z,101642.75
2022-12-19T00:55:14.150Z,101644.8515625
2022-12-19T00:56:10.606Z,101647.01171875
2022-12-19T00:57:10.598Z,101648.5546875
2022-12-19T00:58:10.946Z,101649.765625
2022-12-19T00:59:10.850Z,101649.10546875
2022-12-19T01:00:13.568Z,101649.109375
2022-12-19T01:01:10.776Z,101649.94140625
2022-12-19T01:02:10.823Z,101648.20703125
2022-12-19T01:03:10.933Z,101642.45703125
2022-12-19T01:04:31.121Z,101642.87890625
2022-12-19T01:05:10.524Z,101641.84765625
2022-12-19T01:06:10.597Z,101645.5390625
2022-12-19T01:07:10.662Z,101644.390625
2022-12-19T01:08:10.937Z,101640.03125
2022-12-19T01:09:10.629Z,101637.203125
2022-12-19T01:10:10.604Z,101638.62890625
2022-12-19T01:11:13.696Z,101637.265625
2022-12-19T01:12:10.681Z,101637.63671875
2022-12-19T01:13:10.946Z,101634.46484375
2022-12-19T01:14:10.565Z,101634.8125
2022-12-19T01:15:10.693Z,101632.28515625
2022-12-19T01:16:10.511Z,101630.99609375
2022-12-19T01:17:10.501Z,101639.54296875
2022-12-19T01:18:11.015Z,101641.39453125
2022-12-19T01:19:11.443Z,101646.52734375
2022-12-19T01:20:10.567Z,101644.640625
2022-12-19T01:21:10.481Z,101646.30078125
2022-12-19T01:22:13.617Z,101648.23046875
2022-12-19T01:23:10.862Z,101642.66015625
2022-12-19T01:24:10.636Z,101644.21875
2022-12-19T01:25:10.557Z,101640.65625
2022-12-19T01:26:10.581Z,101641.92578125
2022-12-19T01:27:10.584Z,101644.80859375
2022-12-19T01:28:10.871Z,101647.640625
2022-12-19T01:29:10.488Z,101651.42578125
2022-12-19T01:30:10.594Z,101650.64453125
2022-12-19T01:31:10.665Z,101648.7265625
2022-12-19T01:32:10.483Z,101647.48828125
2022-12-19T01:33:10.943Z,101643.21484375
2022-12-19T01:34:10.868Z,101641.0703125
2022-12-19T01:35:20.814Z,101639.515625
2022-12-19T01:36:10.569Z,101640.51171875
2022-12-19T01:37:10.595Z,101638.78515625
2022-12-19T01:38:16.548Z,101640.84765625
2022-12-19T01:39:10.579Z,101636.44921875
2022-12-19T01:40:10.607Z,101634.80078125
2022-12-19T01:41:10.495Z,101634.03515625
2022-12-19T01:42:10.489Z,101628.125
2022-12-19T01:43:10.938Z,101623.29296875
2022-12-19T01:44:13.655Z,101627.35546875
2022-12-19T01:45:13.830Z,101624.796875
2022-12-19T01:46:10.566Z,101621.2734375
2022-12-19T01:47:10.589Z,101616.86328125
2022-12-19T01:48:10.941Z,101614.09375
2022-12-19T01:49:10.865Z,101616.15234375
2022-12-19T01:50:10.573Z,101612.74609375
2022-12-19T01:51:10.569Z,101614.37890625
2022-12-19T01:52:12.892Z,101619.47265625
2022-12-19T01:53:10.982Z,101619.265625
2022-12-19T01:54:10.685Z,101618.53515625
2022-12-19T01:55:10.621Z,101619.05078125
2022-12-19T01:56:10.455Z,101616.83984375
2022-12-19T01:57:10.609Z,101612.61328125
2022-12-19T01:58:10.836Z,101614.05859375
2022-12-19T01:59:10.698Z,101619.7734375
2022-12-19T02:00:13.509Z,101622.125
2022-12-19T02:01:10.568Z,101623.78125
2022-12-19T02:02:10.813Z,101629.1953125
2022-12-19T02:03:10.876Z,101628.26953125
2022-12-19T02:04:10.887Z,101625.1875
2022-12-19T02:05:10.467Z,101622.12109375
2022-12-19T02:06:10.601Z,101617.20703125
2022-12-19T02:07:15.839Z,101618.46875
2022-12-19T02:08:10.925Z,101613.94140625
2022-12-19T02:09:10.622Z,101609.28125
2022-12-19T02:10:10.692Z,101614.55859375
2022-12-19T02:11:13.614Z,101612.71875
2022-12-19T02:12:10.653Z,101607.453125
2022-12-19T02:13:10.837Z,101612.0546875
2022-12-19T02:14:10.700Z,101616.375
2022-12-19T02:15:10.532Z,101613.9453125
2022-12-19T02:16:10.517Z,101613.69921875
2022-12-19T02:17:10.591Z,101609.07421875
2022-12-19T02:18:10.837Z,101611.27734375
2022-12-19T02:19:11.796Z,101614.5859375
2022-12-19T02:20:10.487Z,101612.95703125
2022-12-19T02:21:10.462Z,101616.12109375
2022-12-19T02:22:18.755Z,101610.68359375
2022-12-19T02:23:10.852Z,101607.78125
2022-12-19T02:24:10.549Z,101611.03125
2022-12-19T02:25:10.595Z,101605.3359375
2022-12-19T02:26:10.567Z,101600.75
2022-12-19T02:27:10.469Z,101602.03125
2022-12-19T02:28:10.846Z,101598.87890625
2022-12-19T02:29:10.570Z,101600.359375
2022-12-19T02:30:10.542Z,101597.3359375
2022-12-19T02:31:17.517Z,101594.7421875
2022-12-19T02:32:10.490Z,101590.2421875
2022-12-19T02:33:16.571Z,101589.19140625
2022-12-19T02:34:10.851Z,101585.63671875
2022-12-19T02:35:10.555Z,101580.65234375
2022-12-19T02:36:10.470Z,101581.77734375
2022-12-19T02:37:10.482Z,101582.92578125
2022-12-19T02:38:13.153Z,101582.984375
2022-12-19T02:39:10.683Z,101583.515625
2022-12-19T02:40:10.703Z,101585.125
2022-12-19T02:41:10.682Z,101584.40625
2022-12-19T02:42:10.470Z,101583.9609375
2022-12-19T02:43:10.927Z,101575.9140625
2022-12-19T02:44:10.487Z,101572.19921875
2022-12-19T02:45:10.493Z,101574.48828125
2022-12-19T02:46:10.561Z,101570.38671875
2022-12-19T02:47:10.580Z,101575.97265625
2022-12-19T02:48:12.289Z,101579.765625
2022-12-19T02:49:10.879Z,101583.609375
2022-12-19T02:50:10.492Z,101582.12890625
2022-12-19T02:51:10.498Z,101591.5078125
2022-12-19T02:52:10.711Z,101588.6328125
2022-12-19T02:53:10.856Z,101585.91015625
2022-12-19T02:54:13.566Z,101583.65234375
2022-12-19T02:55:10.491Z,101584.83203125
2022-12-19T02:56:10.799Z,101588.2890625
2022-12-19T02:57:10.681Z,101585.16796875
2022-12-19T02:58:10.875Z,101575.92578125
2022-12-19T02:59:10.665Z,101572.921875
2022-12-19T03:00:10.505Z,101568.953125
2022-12-19T03:01:10.546Z,101561.89453125
2022-12-19T03:02:10.660Z,101562.1953125
2022-12-19T03:03:11.081Z,101556.78125
2022-12-19T03:04:10.691Z,101548.0859375
2022-12-19T03:05:10.490Z,101544.83984375
2022-12-19T03:06:10.575Z,101538.25390625
2022-12-19T03:07:10.510Z,101541.00390625
2022-12-19T03:08:11.185Z,101545.1015625
2022-12-19T03:09:10.677Z,101551.30078125
2022-12-19T03:10:13.481Z,101553.2265625
2022-12-19T03:11:10.584Z,101554.9453125
2022-12-19T03:12:15.745Z,101554.21484375
2022-12-19T03:13:10.878Z,101549.6953125
2022-12-19T03:14:10.593Z,101548.2421875
2022-12-19T03:15:10.508Z,101545.72265625
2022-12-19T03:16:10.516Z,101545.95703125
2022-12-19T03:17:10.487Z,101551.44140625
2022-12-19T03:18:10.996Z,101555.77734375
2022-12-19T03:19:10.701Z,101556.99609375
2022-12-19T03:20:10.604Z,101560.74609375
2022-12-19T03:21:13.586Z,101565.7578125
2022-12-19T03:22:10.593Z,101566.58984375
2022-12-19T03:23:10.871Z,101568.3203125
2022-12-19T03:24:10.601Z,101568.07421875
2022-12-19T03:25:10.502Z,101570.984375
2022-12-19T03:26:10.588Z,101561.52734375
2022-12-19T03:27:10.616Z,101558.21875
2022-12-19T03:28:10.948Z,101556.28125
2022-12-19T03:29:10.682Z,101558.2421875
2022-12-19T03:30:10.487Z,101558.2578125
2022-12-19T03:31:10.751Z,101555.28125
2022-12-19T03:32:13.542Z,101555.19921875
2022-12-19T03:33:10.887Z,101555.28125
2022-12-19T03:34:11.019Z,101557.9609375
2022-12-19T03:35:10.586Z,101557.29296875
2022-12-19T03:36:10.682Z,101555.53515625
2022-12-19T03:37:10.668Z,101557.2265625
2022-12-19T03:38:10.884Z,101554.84765625
2022-12-19T03:39:10.529Z,101550.87890625
2022-12-19T03:40:10.494Z,101553.65234375
2022-12-19T03:41:10.494Z,101555.05859375
2022-12-19T03:42:10.491Z,101559.18359375
2022-12-19T03:43:13.644Z,101555.890625
2022-12-19T03:44:10.588Z,101557.76171875
2022-12-19T03:45:10.485Z,101556.625
2022-12-19T03:46:10.656Z,101556.94921875
2022-12-19T03:47:10.595Z,101555.08203125
2022-12-19T03:48:10.962Z,101550.4296875
2022-12-19T03:49:10.924Z,101551.8046875
2022-12-19T03:50:10.552Z,101552.06640625
2022-12-19T03:51:10.604Z,101549.828125
2022-12-19T03:52:10.507Z,101549.890625
2022-12-19T03:53:10.967Z,101547.78515625
2022-12-19T03:54:13.658Z,101549.35546875
2022-12-19T03:55:10.688Z,101548.234375
2022-12-19T03:56:10.594Z,101554.2734375
2022-12-19T03:57:10.528Z,101555.1796875
2022-12-19T03:58:10.959Z,101551.1875
2022-12-19T03:59:10.697Z,101553.6640625
2022-12-19T04:00:10.495Z,101548.88671875
2022-12-19T04:01:10.680Z,101549.3828125
2022-12-19T04:02:10.739Z,101552.5390625
2022-12-19T04:03:11.025Z,101553.73828125
2022-12-19T04:04:10.905Z,101552.39453125
2022-12-19T04:05:13.516Z,101553.765625
2022-12-19T04:06:10.599Z,101554.6171875
2022-12-19T04:07:10.617Z,101555.89453125
2022-12-19T04:08:10.683Z,101554.42578125
2022-12-19T04:09:10.595Z,101552.1640625
2022-12-19T04:10:10.630Z,101552.5
2022-12-19T04:11:10.645Z,101548.49609375
2022-12-19T04:12:10.536Z,101546.6875
2022-12-19T04:13:10.885Z,101547.73828125
2022-12-19T04:14:10.611Z,101540.4296875
2022-12-19T04:15:10.522Z,101541.6328125
2022-12-19T04:16:13.613Z,101539.58203125
2022-12-19T04:17:10.603Z,101539.30078125
2022-12-19T04:18:10.632Z,101544.828125
2022-12-19T04:19:10.878Z,101541.6484375
2022-12-19T04:20:10.497Z,101539.890625
2022-12-19T04:21:10.517Z,101543.22265625
2022-12-19T04:22:10.644Z,101537.4296875
2022-12-19T04:23:10.959Z,101534.703125
2022-12-19T04:24:10.600Z,101535.09765625
2022-12-19T04:25:10.515Z,101533.2890625
2022-12-19T04:26:10.605Z,101532.3203125
2022-12-19T04:27:13.678Z,101535.0078125
2022-12-19T04:28:10.887Z,101534.26171875
2022-12-19T04:29:10.732Z,101538.82421875
2022-12-19T04:30:10.700Z,101541.20703125
2022-12-19T04:31:10.637Z,101535.98046875
2022-12-19T04:32:10.615Z,101532.51953125
2022-12-19T04:33:10.884Z,101536.796875
2022-12-19T04:34:10.646Z,101532.5703125
2022-12-19T04:35:10.549Z,101527.2578125
2022-12-19T04:36:10.606Z,101528.1484375
2022-12-19T04:37:10.569Z,101529.4375
2022-12-19T04:38:13.549Z,101528.71484375
2022-12-19T04:39:10.597Z,101527.421875
2022-12-19T04:40:10.629Z,101527.74609375
2022-12-19T04:41:10.782Z,101523.3125
2022-12-19T04:42:10.579Z,101524.44140625
2022-12-19T04:43:10.976Z,101520.171875
2022-12-19T04:44:13.640Z,101518.40234375
2022-12-19T04:45:10.580Z,101515.37890625
2022-12-19T04:46:10.564Z,101514.8984375
2022-12-19T04:47:10.519Z,101515.37890625
2022-12-19T04:48:10.950Z,101517.35546875
2022-12-19T04:49:10.882Z,101515.54296875
2022-12-19T04:50:13.649Z,101517.95703125
2022-12-19T04:51:10.602Z,101519.04296875
2022-12-19T04:52:10.619Z,101517.5546875
2022-12-19T04:53:10.891Z,101508.3359375
2022-12-19T04:54:10.600Z,101507.40625
2022-12-19T04:55:10.500Z,101504.98828125
2022-12-19T04:56:10.658Z,101512.1171875
2022-12-19T04:57:10.679Z,101506.80078125
2022-12-19T04:58:11.028Z,101508.89453125
2022-12-19T04:59:10.735Z,101506
2022-12-19T05:00:10.741Z,101507.0859375
2022-12-19T05:01:13.676Z,101509.7421875
2022-12-19T05:02:10.670Z,101508.25390625
2022-12-19T05:03:11.028Z,101508.41015625
2022-12-19T05:04:10.921Z,101508.53515625
2022-12-19T05:05:10.622Z,101508.45703125
2022-12-19T05:06:10.683Z,101507.28515625
2022-12-19T05:07:10.603Z,101509.0546875
2022-12-19T05:08:10.958Z,101509.171875
2022-12-19T05:09:10.701Z,101514.13671875
2022-12-19T05:10:10.736Z,101513.00390625
2022-12-19T05:11:13.358Z,101513.6484375
2022-12-19T05:12:10.668Z,101512.359375
2022-12-19T05:13:10.957Z,101514.45703125
2022-12-19T05:14:10.684Z,101514.25390625
2022-12-19T05:15:10.694Z,101515.33984375
2022-12-19T05:16:10.663Z,101518.484375
2022-12-19T05:17:13.513Z,101519.20703125
2022-12-19T05:18:10.629Z,101521.578125
2022-12-19T05:19:11.006Z,101524.51953125
2022-12-19T05:20:10.596Z,101522.7890625
2022-12-19T05:21:10.492Z,101520.65234375
2022-12-19T05:22:10.584Z,101516.625
2022-12-19T05:23:17.907Z,101521.33984375
2022-12-19T05:24:10.493Z,101520.171875
2022-12-19T05:25:10.534Z,101521.2578125
2022-12-19T05:26:10.524Z,101519.96875
2022-12-19T05:27:10.604Z,101520.08984375
2022-12-19T05:28:10.618Z,101525.203125
2022-12-19T05:29:13.546Z,101520.65234375
2022-12-19T05:30:10.693Z,101521.171875
2022-12-19T05:31:10.649Z,101510.4140625
2022-12-19T05:32:10.497Z,101506.74609375
2022-12-19T05:33:10.884Z,101499.6953125
2022-12-19T05:34:11.023Z,101500.734375
2022-12-19T05:35:10.508Z,101504.48046875
2022-12-19T05:36:10.518Z,101507.83203125
2022-12-19T05:37:10.616Z,101508.87890625
2022-12-19T05:38:10.958Z,101513.95703125
2022-12-19T05:39:10.592Z,101513.640625
2022-12-19T05:40:13.637Z,101517.58984375
2022-12-19T05:41:10.735Z,101513.84375
2022-12-19T05:42:12.329Z,101516.74609375
2022-12-19T05:43:10.705Z,101517.30078125
2022-12-19T05:44:10.622Z,101515.32421875
2022-12-19T05:45:10.519Z,101515.03125
2022-12-19T05:46:10.528Z,101518.5
2022-12-19T05:47:11.017Z,101517.8203125
2022-12-19T05:48:10.712Z,101521.08203125
2022-12-19T05:49:10.541Z,101513.83984375
2022-12-19T05:50:10.726Z,101513.15234375
2022-12-19T05:51:13.502Z,101512.19921875
2022-12-19T05:52:11.004Z,101511.59375
2022-12-19T05:53:10.509Z,101509.86328125
2022-12-19T05:54:10.602Z,101509.90234375
2022-12-19T05:55:10.487Z,101511.515625
2022-12-19T05:56:10.603Z,101511.15234375
2022-12-19T05:57:10.875Z,101515.703125
2022-12-19T05:58:10.624Z,101511.0703125
2022-12-19T05:59:10.715Z,101505.0234375
2022-12-19T06:00:10.713Z,101506.1484375
2022-12-19T06:01:10.498Z,101501.32421875
2022-12-19T06:02:11.038Z,101503.85546875
2022-12-19T06:03:10.763Z,101503.82421875
2022-12-19T06:04:10.881Z,101508.29296875
2022-12-19T06:05:10.489Z,101508.81640625
2022-12-19T06:06:10.594Z,101511.390625
2022-12-19T06:07:20.711Z,101502.484375
2022-12-19T06:08:10.691Z,101502.00390625
2022-12-19T06:09:10.719Z,101501.04296875
2022-12-19T06:10:10.585Z,101501.48828125
2022-12-19T06:11:10.726Z,101504.3828125
2022-12-19T06:12:10.958Z,101503.30078125
2022-12-19T06:13:10.621Z,101508.453125
2022-12-19T06:14:10.572Z,101508.171875
2022-12-19T06:15:10.499Z,101503.69921875
2022-12-19T06:16:11.092Z,101506.671875
2022-12-19T06:17:10.631Z,101504.9765625
2022-12-19T06:18:13.532Z,101502.15234375
2022-12-19T06:19:10.884Z,101500.32421875
2022-12-19T06:20:10.708Z,101502.78125
2022-12-19T06:21:10.863Z,101507.40234375
2022-12-19T06:22:10.562Z,101505.06640625
2022-12-19T06:23:10.585Z,101507.4765625
2022-12-19T06:24:10.501Z,101507.4765625
2022-12-19T06:25:10.606Z,101510.33984375
2022-12-19T06:26:15.541Z,101509.609375
2022-12-19T06:27:10.603Z,101508.02734375
2022-12-19T06:28:10.635Z,101508.0703125
2022-12-19T06:29:13.592Z,101507.53125
2022-12-19T06:30:10.611Z,101508.3984375
2022-12-19T06:31:11.042Z,101513.07421875
2022-12-19T06:32:10.567Z,101511.8984375
2022-12-19T06:33:10.586Z,101516.9296875
2022-12-19T06:34:11.170Z,101512.7265625
2022-12-19T06:35:10.644Z,101506.6875
2022-12-19T06:36:10.542Z,101496.96484375
2022-12-19T06:37:10.489Z,101494.49609375
2022-12-19T06:38:10.621Z,101503.03125
2022-12-19T06:39:10.701Z,101505.19921875
2022-12-19T06:40:13.611Z,101512.30078125
2022-12-19T06:41:10.886Z,101514.1953125
2022-12-19T06:42:10.688Z,101509.37890625
2022-12-19T06:43:10.597Z,101514.17578125
2022-12-19T06:44:10.662Z,101510
2022-12-19T06:45:10.708Z,101509.0859375
2022-12-19T06:46:16.679Z,101516.7890625
2022-12-19T06:47:10.599Z,101517.3515625
2022-12-19T06:48:10.511Z,101514.328125
2022-12-19T06:49:10.957Z,101516.10546875
2022-12-19T06:50:10.559Z,101521.8203125
2022-12-19T06:51:10.958Z,101520.49609375
2022-12-19T06:52:10.499Z,101516.26171875
2022-12-19T06:53:10.610Z,101514.68359375
2022-12-19T06:54:10.673Z,101508.36328125
2022-12-19T06:55:10.605Z,101508.61328125
2022-12-19T06:56:10.939Z,101506.39453125
2022-12-19T06:57:13.630Z,101501.84765625
2022-12-19T06:58:10.585Z,101501.71875
2022-12-19T06:59:10.495Z,101499.57421875
2022-12-19T07:00:10.512Z,101502.0625
2022-12-19T07:01:11.021Z,101504.30859375
2022-12-19T07:02:10.694Z,101502.24609375
2022-12-19T07:03:10.674Z,101503.42578125
2022-12-19T07:04:10.949Z,101499.78515625
2022-12-19T07:05:10.671Z,101500.046875
2022-12-19T07:06:11.011Z,101499.7265625
2022-12-19T07:07:10.604Z,101501.78125
2022-12-19T07:08:10.614Z,101506.296875
2022-12-19T07:09:10.589Z,101497.62890625
2022-12-19T07:10:10.505Z,101493.3671875
2022-12-19T07:11:10.884Z,101491.0078125
2022-12-19T07:12:10.626Z,101485.23046875
2022-12-19T07:13:13.499Z,101485.17578125
2022-12-19T07:14:10.682Z,101473.109375
2022-12-19T07:15:10.504Z,101468.6171875
2022-12-19T07:16:11.063Z,101473.109375
2022-12-19T07:17:10.725Z,101477.47265625
2022-12-19T07:18:10.589Z,101481.9296875
2022-12-19T07:19:10.518Z,101481.26171875
2022-12-19T07:20:10.488Z,101479.4375
2022-12-19T07:21:10.868Z,101483.12890625
2022-12-19T07:22:10.570Z,101477.8125
2022-12-19T07:23:10.502Z,101480.70703125
2022-12-19T07:24:10.516Z,101479.91796875
2022-12-19T07:25:10.586Z,101486.23828125
2022-12-19T07:26:10.941Z,101492.3671875
2022-12-19T07:27:10.623Z,101493.17578125
2022-12-19T07:28:10.499Z,101493.10546875
2022-12-19T07:29:13.633Z,101499.90234375
2022-12-19T07:30:10.683Z,101497.3046875
2022-12-19T07:31:10.973Z,101493.38671875
2022-12-19T07:32:10.615Z,101491.87890625
2022-12-19T07:33:11.872Z,101487.86328125
2022-12-19T07:34:10.976Z,101486.640625
2022-12-19T07:35:10.508Z,101486.03125
2022-12-19T07:36:11.506Z,101487.93359375
2022-12-19T07:37:10.570Z,101487.8359375
2022-12-19T07:38:10.505Z,101489.42578125
2022-12-19T07:39:10.588Z,101487.65625
2022-12-19T07:40:13.635Z,101490.953125
2022-12-19T07:41:10.882Z,101495.0234375
2022-12-19T07:42:10.685Z,101495.44140625
2022-12-19T07:43:10.528Z,101493.33203125
2022-12-19T07:44:10.521Z,101500.7578125
2022-12-19T07:45:10.488Z,101499.85546875
2022-12-19T07:46:10.899Z,101501.0234375
2022-12-19T07:47:10.489Z,101496.89453125
2022-12-19T07:48:10.489Z,101491.08203125
2022-12-19T07:49:10.870Z,101492.8984375
2022-12-19T07:50:10.608Z,101493.0390625
2022-12-19T07:51:10.874Z,101498.8671875
2022-12-19T07:52:10.710Z,101500.62890625
2022-12-19T07:53:10.557Z,101502.53515625
2022-12-19T07:54:10.614Z,101501.8203125
2022-12-19T07:55:10.489Z,101497.60546875
2022-12-19T07:56:13.650Z,101495.56640625
2022-12-19T07:57:10.687Z,101494.74609375
2022-12-19T07:58:10.609Z,101496.078125
2022-12-19T07:59:10.561Z,101497.0390625
2022-12-19T08:00:10.615Z,101498.15625
2022-12-19T08:01:10.987Z,101499.7109375
2022-12-19T08:02:10.666Z,101497.39453125
2022-12-19T08:03:10.653Z,101495.171875
2022-12-19T08:04:10.872Z,101496.84765625
2022-12-19T08:05:10.482Z,101497.2265625
2022-12-19T08:06:11.008Z,101494.3203125
2022-12-19T08:07:13.524Z,101484.203125
2022-12-19T08:08:10.614Z,101488.02734375
2022-12-19T08:09:10.635Z,101490.28125
2022-12-19T08:10:10.671Z,101489.92578125
2022-12-19T08:11:10.874Z,101490.27734375
2022-12-19T08:12:10.615Z,101489.578125
2022-12-19T08:13:10.493Z,101486.78125
2022-12-19T08:14:10.551Z,101491.375
2022-12-19T08:15:11.305Z,101489.2890625
2022-12-19T08:16:10.975Z,101491.5703125
2022-12-19T08:17:20.326Z,101494.83203125
2022-12-19T08:18:13.508Z,101495.625
2022-12-19T08:19:10.864Z,101500.54296875
2022-12-19T08:20:10.490Z,101495.671875
2022-12-19T08:21:10.969Z,101495.375
2022-12-19T08:22:10.658Z,101488.0625
2022-12-19T08:23:10.633Z,101489.62109375
2022-12-19T08:24:10.634Z,101498.72265625
2022-12-19T08:25:10.642Z,101499.47265625
2022-12-19T08:26:10.873Z,101504.0859375
2022-12-19T08:27:10.690Z,101501.68359375
2022-12-19T08:28:10.557Z,101500.09375
2022-12-19T08:29:13.613Z,101505.44921875
2022-12-19T08:30:10.580Z,101501.57421875
2022-12-19T08:31:11.021Z,101499.6015625
2022-12-19T08:32:13.307Z,101500.6953125
2022-12-19T08:33:10.500Z,101498.7109375
2022-12-19T08:34:10.948Z,101493.40625
2022-12-19T08:35:10.474Z,101493.7265625
2022-12-19T08:36:10.878Z,101497.11328125
2022-12-19T08:37:10.715Z,101495.796875
2022-12-19T08:38:10.662Z,101494.5703125
2022-12-19T08:39:10.495Z,101491.0546875
2022-12-19T08:40:13.641Z,101491.6328125
2022-12-19T08:41:10.592Z,101491.20703125
2022-12-19T08:42:10.640Z,101488.69921875
2022-12-19T08:43:10.570Z,101489.67578125
2022-12-19T08:44:10.574Z,101492.734375
2022-12-19T08:45:10.512Z,101496.69921875
2022-12-19T08:46:10.946Z,101497.65625
2022-12-19T08:47:10.697Z,101496.30078125
2022-12-19T08:48:10.715Z,101496.3671875
2022-12-19T08:49:10.632Z,101489.51171875
2022-12-19T08:50:10.494Z,101491.20703125
2022-12-19T08:51:10.999Z,101487.578125
2022-12-19T08:52:10.706Z,101489.609375
2022-12-19T08:53:10.595Z,101487.65625
2022-12-19T08:54:11.846Z,101484.0546875
2022-12-19T08:55:10.499Z,101483.27734375
2022-12-19T08:56:16.624Z,101479.05859375
2022-12-19T08:57:10.683Z,101476.2734375
2022-12-19T08:58:10.488Z,101474.796875
2022-12-19T08:59:10.494Z,101471.375
2022-12-19T09:00:10.711Z,101475.80859375
2022-12-19T09:01:10.991Z,101481.1171875
2022-12-19T09:02:10.910Z,101480.4296875
2022-12-19T09:03:10.978Z,101475.078125
2022-12-19T09:04:44.124Z,101478.4375
2022-12-19T09:06:01.554Z,101480.67578125
2022-12-19T09:07:01.800Z,101484.87890625
2022-12-19T09:07:57.789Z,101484.09375
2022-12-19T09:08:59.909Z,101486.28125
2022-12-19T09:09:57.773Z,101486.45703125
2022-12-19T09:10:58.135Z,101483.75390625
2022-12-19T09:11:57.745Z,101485.04296875
2022-12-19T09:12:58.093Z,101485.19140625
2022-12-19T09:13:57.788Z,101487.25390625
2022-12-19T09:14:57.849Z,101487.56640625
2022-12-19T09:15:58.045Z,101484.65234375
2022-12-19T09:16:57.829Z,101483.2578125
2022-12-19T09:18:00.793Z,101487.00390625
2022-12-19T09:18:57.745Z,101489.07421875
2022-12-19T09:19:58.136Z,101487.1171875
2022-12-19T09:20:58.065Z,101490.87109375
2022-12-19T09:21:57.778Z,101487.74609375
2022-12-19T09:22:57.664Z,101490.89453125
2022-12-19T09:24:03.510Z,101490.59375
2022-12-19T09:24:57.697Z,101487.53515625
2022-12-19T09:25:58.146Z,101480.53515625
2022-12-19T09:26:57.883Z,101482.51953125
2022-12-19T09:28:25.767Z,101484.09375
2022-12-19T09:29:00.865Z,101483.0546875
2022-12-19T09:29:57.771Z,101485.0234375
2022-12-19T09:30:58.251Z,101491.8984375
2022-12-19T09:31:57.867Z,101486.53125
2022-12-19T09:32:57.890Z,101480.578125
2022-12-19T09:33:57.789Z,101475.54296875
2022-12-19T09:34:58.059Z,101475.625
2022-12-19T09:35:58.125Z,101480.58203125
2022-12-19T09:36:57.889Z,101475.9921875
2022-12-19T09:38:00.374Z,101477.60546875
2022-12-19T09:38:57.769Z,101472.546875
2022-12-19T09:40:00.815Z,101475.66015625
2022-12-19T09:40:58.061Z,101478.49609375
2022-12-19T09:41:57.737Z,101484.03515625
2022-12-19T09:42:57.750Z,101484.8515625
2022-12-19T09:43:57.684Z,101482.07421875
2022-12-19T09:44:57.746Z,101482.2265625
2022-12-19T09:45:57.691Z,101482.54296875
2022-12-19T09:46:57.804Z,101482.66015625
2022-12-19T09:47:57.784Z,101482.55859375
2022-12-19T09:48:57.765Z,101481.8125
2022-12-19T09:49:58.058Z,101481.14453125
2022-12-19T09:51:10.301Z,101478.7734375
2022-12-19T09:51:57.762Z,101481.984375
2022-12-19T09:52:57.783Z,101481.1796875
2022-12-19T09:53:57.854Z,101481.0625
2022-12-19T09:54:57.652Z,101480.78125
2022-12-19T09:55:58.121Z,101478.828125
2022-12-19T09:56:57.795Z,101476.89453125
2022-12-19T09:57:57.668Z,101477.77734375
2022-12-19T09:58:57.681Z,101477.9609375
2022-12-19T09:59:57.835Z,101476.70703125